sensor_id;sensor_type;location;lat;lon;timestamp;P1;durP1;ratioP1;P2;durP2;ratioP2
48703;SDS011;34502;51.296;16.918;2022-10-01T00:00:32;28.10;;;22.42;;
48703;SDS011;34502;51.296;16.918;2022-10-01T00:02:59;35.35;;;24.77;;
48703;SDS011;34502;51.296;16.918;2022-10-01T00:05:25;30.15;;;23.40;;
48703;SDS011;34502;51.296;16.918;2022-10-01T00:07:51;37.03;;;24.25;;
48703;SDS011;34502;51.296;16.918;2022-10-01T00:10:17;32.92;;;23.58;;
48703;SDS011;34502;51.296;16.918;2022-10-01T00:12:44;33.00;;;24.60;;
48703;SDS011;34502;51.296;16.918;2022-10-01T00:15:13;30.13;;;23.65;;
48703;SDS011;34502;51.296;16.918;2022-10-01T00:17:40;33.45;;;25.85;;
48703;SDS011;34502;51.296;16.918;2022-10-01T00:20:07;31.90;;;24.85;;
48703;SDS011;34502;51.296;16.918;2022-10-01T00:22:34;30.35;;;24.63;;
48703;SDS011;34502;51.296;16.918;2022-10-01T00:25:01;36.78;;;25.98;;
48703;SDS011;34502;51.296;16.918;2022-10-01T00:27:28;36.72;;;25.50;;
48703;SDS011;34502;51.296;16.918;2022-10-01T00:29:55;32.22;;;25.55;;
48703;SDS011;34502;51.296;16.918;2022-10-01T00:32:21;34.38;;;25.90;;
48703;SDS011;34502;51.296;16.918;2022-10-01T00:34:48;33.35;;;25.42;;
48703;SDS011;34502;51.296;16.918;2022-10-01T00:37:14;36.63;;;27.63;;
48703;SDS011;34502;51.296;16.918;2022-10-01T00:39:42;38.67;;;28.23;;
48703;SDS011;34502;51.296;16.918;2022-10-01T00:42:21;35.15;;;28.20;;
48703;SDS011;34502;51.296;16.918;2022-10-01T00:44:49;35.42;;;28.05;;
48703;SDS011;34502;51.296;16.918;2022-10-01T00:47:24;38.65;;;28.05;;
48703;SDS011;34502;51.296;16.918;2022-10-01T00:50:18;36.42;;;27.60;;
48703;SDS011;34502;51.296;16.918;2022-10-01T00:52:46;40.55;;;29.73;;
48703;SDS011;34502;51.296;16.918;2022-10-01T00:55:17;41.97;;;30.60;;
48703;SDS011;34502;51.296;16.918;2022-10-01T00:57:45;43.58;;;30.40;;
48703;SDS011;34502;51.296;16.918;2022-10-01T01:00:11;36.58;;;29.02;;
48703;SDS011;34502;51.296;16.918;2022-10-01T01:02:38;38.60;;;29.95;;
48703;SDS011;34502;51.296;16.918;2022-10-01T01:05:05;41.63;;;29.30;;
48703;SDS011;34502;51.296;16.918;2022-10-01T01:07:33;42.80;;;31.25;;
48703;SDS011;34502;51.296;16.918;2022-10-01T01:09:59;40.83;;;30.98;;
48703;SDS011;34502;51.296;16.918;2022-10-01T01:32:19;40.22;;;30.58;;
48703;SDS011;34502;51.296;16.918;2022-10-01T01:34:50;45.15;;;33.88;;
48703;SDS011;34502;51.296;16.918;2022-10-01T01:37:18;43.90;;;32.55;;
48703;SDS011;34502;51.296;16.918;2022-10-01T01:39:47;42.80;;;32.05;;
48703;SDS011;34502;51.296;16.918;2022-10-01T01:42:17;41.50;;;33.13;;
48703;SDS011;34502;51.296;16.918;2022-10-01T01:44:47;38.75;;;28.92;;
48703;SDS011;34502;51.296;16.918;2022-10-01T01:47:15;39.58;;;29.95;;
48703;SDS011;34502;51.296;16.918;2022-10-01T01:49:45;41.05;;;29.83;;
48703;SDS011;34502;51.296;16.918;2022-10-01T01:52:14;37.83;;;29.88;;
48703;SDS011;34502;51.296;16.918;2022-10-01T01:54:41;40.00;;;29.75;;
48703;SDS011;34502;51.296;16.918;2022-10-01T01:57:10;41.25;;;30.35;;
48703;SDS011;34502;51.296;16.918;2022-10-01T01:59:41;37.35;;;29.05;;
48703;SDS011;34502;51.296;16.918;2022-10-01T02:02:14;36.78;;;29.95;;
48703;SDS011;34502;51.296;16.918;2022-10-01T02:04:47;38.25;;;30.10;;
48703;SDS011;34502;51.296;16.918;2022-10-01T02:13:17;39.22;;;30.00;;
48703;SDS011;34502;51.296;16.918;2022-10-01T02:16:10;40.03;;;29.63;;
48703;SDS011;34502;51.296;16.918;2022-10-01T02:21:29;46.58;;;32.25;;
48703;SDS011;34502;51.296;16.918;2022-10-01T02:24:06;39.83;;;30.75;;
48703;SDS011;34502;51.296;16.918;2022-10-01T02:26:37;38.40;;;28.75;;
48703;SDS011;34502;51.296;16.918;2022-10-01T02:29:05;44.88;;;31.63;;
48703;SDS011;34502;51.296;16.918;2022-10-01T02:31:32;42.60;;;30.50;;
48703;SDS011;34502;51.296;16.918;2022-10-01T02:34:00;44.60;;;33.72;;
48703;SDS011;34502;51.296;16.918;2022-10-01T02:36:27;42.00;;;32.92;;
48703;SDS011;34502;51.296;16.918;2022-10-01T02:38:54;42.90;;;33.80;;
48703;SDS011;34502;51.296;16.918;2022-10-01T02:41:23;40.35;;;31.27;;
48703;SDS011;34502;51.296;16.918;2022-10-01T02:46:22;49.60;;;37.10;;
48703;SDS011;34502;51.296;16.918;2022-10-01T02:49:06;48.75;;;35.72;;
48703;SDS011;34502;51.296;16.918;2022-10-01T02:51:42;50.22;;;34.53;;
48703;SDS011;34502;51.296;16.918;2022-10-01T02:54:23;52.15;;;37.03;;
48703;SDS011;34502;51.296;16.918;2022-10-01T02:56:51;50.22;;;37.17;;
48703;SDS011;34502;51.296;16.918;2022-10-01T02:59:36;50.45;;;36.72;;
48703;SDS011;34502;51.296;16.918;2022-10-01T03:02:02;51.22;;;37.85;;
48703;SDS011;34502;51.296;16.918;2022-10-01T03:04:28;48.90;;;36.95;;
48703;SDS011;34502;51.296;16.918;2022-10-01T03:06:54;53.25;;;37.65;;
48703;SDS011;34502;51.296;16.918;2022-10-01T03:11:54;45.47;;;34.45;;
48703;SDS011;34502;51.296;16.918;2022-10-01T03:14:21;48.30;;;36.63;;
48703;SDS011;34502;51.296;16.918;2022-10-01T03:16:48;65.60;;;38.75;;
48703;SDS011;34502;51.296;16.918;2022-10-01T03:19:15;52.22;;;38.75;;
48703;SDS011;34502;51.296;16.918;2022-10-01T03:21:41;49.85;;;38.40;;
48703;SDS011;34502;51.296;16.918;2022-10-01T03:24:07;44.55;;;35.58;;
48703;SDS011;34502;51.296;16.918;2022-10-01T03:26:33;58.85;;;38.35;;
48703;SDS011;34502;51.296;16.918;2022-10-01T03:29:00;46.65;;;36.90;;
48703;SDS011;34502;51.296;16.918;2022-10-01T03:31:27;46.25;;;36.58;;
48703;SDS011;34502;51.296;16.918;2022-10-01T03:33:53;45.78;;;34.90;;
48703;SDS011;34502;51.296;16.918;2022-10-01T03:36:24;45.70;;;36.97;;
48703;SDS011;34502;51.296;16.918;2022-10-01T03:38:50;44.65;;;36.50;;
48703;SDS011;34502;51.296;16.918;2022-10-01T03:41:16;49.08;;;35.45;;
48703;SDS011;34502;51.296;16.918;2022-10-01T03:43:42;45.17;;;35.92;;
48703;SDS011;34502;51.296;16.918;2022-10-01T03:46:08;50.42;;;35.70;;
48703;SDS011;34502;51.296;16.918;2022-10-01T03:48:35;64.28;;;38.15;;
48703;SDS011;34502;51.296;16.918;2022-10-01T03:51:02;43.55;;;35.88;;
48703;SDS011;34502;51.296;16.918;2022-10-01T03:53:28;44.58;;;33.83;;
48703;SDS011;34502;51.296;16.918;2022-10-01T03:55:55;41.75;;;34.15;;
48703;SDS011;34502;51.296;16.918;2022-10-01T03:58:22;46.20;;;35.95;;
48703;SDS011;34502;51.296;16.918;2022-10-01T04:00:48;39.80;;;34.03;;
48703;SDS011;34502;51.296;16.918;2022-10-01T04:03:15;38.95;;;33.65;;
48703;SDS011;34502;51.296;16.918;2022-10-01T04:05:42;42.08;;;34.85;;
48703;SDS011;34502;51.296;16.918;2022-10-01T04:08:09;41.30;;;33.03;;
48703;SDS011;34502;51.296;16.918;2022-10-01T04:10:35;47.35;;;35.25;;
48703;SDS011;34502;51.296;16.918;2022-10-01T04:13:02;43.88;;;34.45;;
48703;SDS011;34502;51.296;16.918;2022-10-01T04:15:28;39.15;;;31.95;;
48703;SDS011;34502;51.296;16.918;2022-10-01T04:17:54;48.60;;;33.67;;
48703;SDS011;34502;51.296;16.918;2022-10-01T04:20:22;49.30;;;34.05;;
48703;SDS011;34502;51.296;16.918;2022-10-01T04:22:48;56.88;;;33.00;;
48703;SDS011;34502;51.296;16.918;2022-10-01T04:25:14;42.22;;;33.17;;
48703;SDS011;34502;51.296;16.918;2022-10-01T04:27:40;37.28;;;32.20;;
48703;SDS011;34502;51.296;16.918;2022-10-01T04:30:19;39.30;;;32.85;;
48703;SDS011;34502;51.296;16.918;2022-10-01T04:32:45;36.47;;;32.05;;
48703;SDS011;34502;51.296;16.918;2022-10-01T04:35:12;49.15;;;32.97;;
48703;SDS011;34502;51.296;16.918;2022-10-01T04:37:38;37.45;;;31.67;;
48703;SDS011;34502;51.296;16.918;2022-10-01T04:40:04;37.13;;;29.90;;
48703;SDS011;34502;51.296;16.918;2022-10-01T04:42:31;38.53;;;29.55;;
48703;SDS011;34502;51.296;16.918;2022-10-01T04:44:57;33.15;;;29.50;;
48703;SDS011;34502;51.296;16.918;2022-10-01T04:47:23;33.65;;;29.65;;
48703;SDS011;34502;51.296;16.918;2022-10-01T04:49:49;32.08;;;27.65;;
48703;SDS011;34502;51.296;16.918;2022-10-01T04:52:15;33.85;;;28.67;;
48703;SDS011;34502;51.296;16.918;2022-10-01T04:54:41;37.35;;;32.15;;
48703;SDS011;34502;51.296;16.918;2022-10-01T04:57:07;35.15;;;28.23;;
48703;SDS011;34502;51.296;16.918;2022-10-01T04:59:33;32.28;;;27.77;;
48703;SDS011;34502;51.296;16.918;2022-10-01T05:01:59;40.78;;;28.73;;
48703;SDS011;34502;51.296;16.918;2022-10-01T05:04:25;32.30;;;27.33;;
48703;SDS011;34502;51.296;16.918;2022-10-01T05:06:51;32.13;;;27.88;;
48703;SDS011;34502;51.296;16.918;2022-10-01T05:09:17;35.90;;;26.98;;
48703;SDS011;34502;51.296;16.918;2022-10-01T05:11:43;39.38;;;27.60;;
48703;SDS011;34502;51.296;16.918;2022-10-01T05:14:10;35.50;;;27.52;;
48703;SDS011;34502;51.296;16.918;2022-10-01T05:16:39;39.70;;;29.60;;
48703;SDS011;34502;51.296;16.918;2022-10-01T05:19:05;32.13;;;26.63;;
48703;SDS011;34502;51.296;16.918;2022-10-01T05:21:31;32.80;;;28.50;;
48703;SDS011;34502;51.296;16.918;2022-10-01T05:23:57;32.85;;;27.65;;
48703;SDS011;34502;51.296;16.918;2022-10-01T05:26:23;33.42;;;26.52;;
48703;SDS011;34502;51.296;16.918;2022-10-01T05:28:49;32.15;;;26.80;;
48703;SDS011;34502;51.296;16.918;2022-10-01T05:31:15;29.63;;;26.42;;
48703;SDS011;34502;51.296;16.918;2022-10-01T05:33:42;31.30;;;26.45;;
48703;SDS011;34502;51.296;16.918;2022-10-01T05:36:08;33.28;;;26.45;;
48703;SDS011;34502;51.296;16.918;2022-10-01T05:38:34;38.15;;;27.83;;
48703;SDS011;34502;51.296;16.918;2022-10-01T05:41:02;30.67;;;26.58;;
48703;SDS011;34502;51.296;16.918;2022-10-01T05:43:28;28.15;;;25.17;;
48703;SDS011;34502;51.296;16.918;2022-10-01T05:45:58;31.75;;;25.65;;
48703;SDS011;34502;51.296;16.918;2022-10-01T05:48:25;30.08;;;24.40;;
48703;SDS011;34502;51.296;16.918;2022-10-01T05:50:51;32.95;;;25.83;;
48703;SDS011;34502;51.296;16.918;2022-10-01T05:53:18;28.10;;;25.02;;
48703;SDS011;34502;51.296;16.918;2022-10-01T05:55:44;30.80;;;24.17;;
48703;SDS011;34502;51.296;16.918;2022-10-01T05:58:11;28.15;;;24.67;;
48703;SDS011;34502;51.296;16.918;2022-10-01T06:00:38;30.50;;;25.88;;
48703;SDS011;34502;51.296;16.918;2022-10-01T06:03:05;29.92;;;23.85;;
48703;SDS011;34502;51.296;16.918;2022-10-01T06:05:32;28.85;;;23.88;;
48703;SDS011;34502;51.296;16.918;2022-10-01T06:07:59;27.45;;;24.05;;
48703;SDS011;34502;51.296;16.918;2022-10-01T06:10:26;26.90;;;24.00;;
48703;SDS011;34502;51.296;16.918;2022-10-01T06:12:57;29.30;;;24.08;;
48703;SDS011;34502;51.296;16.918;2022-10-01T06:15:25;31.60;;;26.20;;
48703;SDS011;34502;51.296;16.918;2022-10-01T06:17:52;30.75;;;25.30;;
48703;SDS011;34502;51.296;16.918;2022-10-01T06:20:18;27.45;;;24.35;;
48703;SDS011;34502;51.296;16.918;2022-10-01T06:22:50;30.20;;;26.10;;
48703;SDS011;34502;51.296;16.918;2022-10-01T06:25:17;28.70;;;25.17;;
48703;SDS011;34502;51.296;16.918;2022-10-01T06:27:43;28.20;;;25.10;;
48703;SDS011;34502;51.296;16.918;2022-10-01T06:30:14;27.35;;;24.08;;
48703;SDS011;34502;51.296;16.918;2022-10-01T06:32:40;27.40;;;24.35;;
48703;SDS011;34502;51.296;16.918;2022-10-01T06:35:07;29.80;;;24.95;;
48703;SDS011;34502;51.296;16.918;2022-10-01T06:37:35;30.58;;;25.27;;
48703;SDS011;34502;51.296;16.918;2022-10-01T06:40:02;30.13;;;24.90;;
48703;SDS011;34502;51.296;16.918;2022-10-01T06:42:29;32.03;;;24.90;;
48703;SDS011;34502;51.296;16.918;2022-10-01T06:44:55;29.58;;;25.88;;
48703;SDS011;34502;51.296;16.918;2022-10-01T06:47:21;28.50;;;25.35;;
48703;SDS011;34502;51.296;16.918;2022-10-01T06:49:47;33.33;;;26.48;;
48703;SDS011;34502;51.296;16.918;2022-10-01T06:52:13;29.67;;;25.13;;
48703;SDS011;34502;51.296;16.918;2022-10-01T06:54:58;28.35;;;24.77;;
48703;SDS011;34502;51.296;16.918;2022-10-01T06:57:25;29.27;;;24.48;;
48703;SDS011;34502;51.296;16.918;2022-10-01T06:59:52;31.52;;;24.20;;
48703;SDS011;34502;51.296;16.918;2022-10-01T07:02:25;28.30;;;24.35;;
48703;SDS011;34502;51.296;16.918;2022-10-01T07:04:57;28.00;;;24.10;;
48703;SDS011;34502;51.296;16.918;2022-10-01T07:07:27;29.60;;;25.85;;
48703;SDS011;34502;51.296;16.918;2022-10-01T07:09:57;27.20;;;23.95;;
48703;SDS011;34502;51.296;16.918;2022-10-01T07:12:23;27.30;;;22.90;;
48703;SDS011;34502;51.296;16.918;2022-10-01T07:14:50;27.17;;;23.77;;
48703;SDS011;34502;51.296;16.918;2022-10-01T07:17:16;26.95;;;23.45;;
48703;SDS011;34502;51.296;16.918;2022-10-01T07:19:42;27.25;;;22.85;;
48703;SDS011;34502;51.296;16.918;2022-10-01T07:22:08;26.45;;;22.75;;
48703;SDS011;34502;51.296;16.918;2022-10-01T07:24:34;24.60;;;21.75;;
48703;SDS011;34502;51.296;16.918;2022-10-01T07:27:00;24.50;;;21.70;;
48703;SDS011;34502;51.296;16.918;2022-10-01T07:29:26;23.98;;;20.25;;
48703;SDS011;34502;51.296;16.918;2022-10-01T07:31:55;25.20;;;21.58;;
48703;SDS011;34502;51.296;16.918;2022-10-01T07:34:25;24.23;;;21.33;;
48703;SDS011;34502;51.296;16.918;2022-10-01T07:36:51;22.02;;;19.80;;
48703;SDS011;34502;51.296;16.918;2022-10-01T07:39:18;22.92;;;20.52;;
48703;SDS011;34502;51.296;16.918;2022-10-01T07:41:44;24.10;;;20.35;;
48703;SDS011;34502;51.296;16.918;2022-10-01T07:44:10;21.60;;;18.65;;
48703;SDS011;34502;51.296;16.918;2022-10-01T07:46:37;21.42;;;18.17;;
48703;SDS011;34502;51.296;16.918;2022-10-01T07:49:03;21.08;;;18.17;;
48703;SDS011;34502;51.296;16.918;2022-10-01T07:51:30;21.95;;;19.65;;
48703;SDS011;34502;51.296;16.918;2022-10-01T07:53:56;20.98;;;18.70;;
48703;SDS011;34502;51.296;16.918;2022-10-01T07:56:23;19.60;;;17.48;;
48703;SDS011;34502;51.296;16.918;2022-10-01T07:58:59;16.17;;;14.48;;
48703;SDS011;34502;51.296;16.918;2022-10-01T08:01:25;17.98;;;14.43;;
48703;SDS011;34502;51.296;16.918;2022-10-01T08:03:52;16.02;;;14.43;;
48703;SDS011;34502;51.296;16.918;2022-10-01T08:06:19;17.90;;;16.10;;
48703;SDS011;34502;51.296;16.918;2022-10-01T08:08:45;17.40;;;15.63;;
48703;SDS011;34502;51.296;16.918;2022-10-01T08:11:11;16.90;;;15.07;;
48703;SDS011;34502;51.296;16.918;2022-10-01T08:13:41;15.70;;;14.10;;
48703;SDS011;34502;51.296;16.918;2022-10-01T08:16:10;15.48;;;13.88;;
48703;SDS011;34502;51.296;16.918;2022-10-01T08:18:37;15.63;;;14.02;;
48703;SDS011;34502;51.296;16.918;2022-10-01T08:21:04;15.45;;;13.23;;
48703;SDS011;34502;51.296;16.918;2022-10-01T08:23:31;15.15;;;13.63;;
48703;SDS011;34502;51.296;16.918;2022-10-01T08:25:58;14.48;;;12.98;;
48703;SDS011;34502;51.296;16.918;2022-10-01T08:28:26;16.10;;;12.98;;
48703;SDS011;34502;51.296;16.918;2022-10-01T08:30:52;13.70;;;12.25;;
48703;SDS011;34502;51.296;16.918;2022-10-01T08:33:20;13.50;;;11.63;;
48703;SDS011;34502;51.296;16.918;2022-10-01T08:35:46;14.98;;;12.13;;
48703;SDS011;34502;51.296;16.918;2022-10-01T08:38:12;13.10;;;11.77;;
48703;SDS011;34502;51.296;16.918;2022-10-01T08:40:49;12.52;;;10.82;;
48703;SDS011;34502;51.296;16.918;2022-10-01T08:45:56;12.27;;;9.85;;
48703;SDS011;34502;51.296;16.918;2022-10-01T08:51:45;14.13;;;11.75;;
48703;SDS011;34502;51.296;16.918;2022-10-01T08:57:01;14.90;;;12.73;;
48703;SDS011;34502;51.296;16.918;2022-10-01T08:59:37;13.02;;;11.60;;
48703;SDS011;34502;51.296;16.918;2022-10-01T09:04:42;14.98;;;12.80;;
48703;SDS011;34502;51.296;16.918;2022-10-01T09:09:55;15.15;;;11.80;;
48703;SDS011;34502;51.296;16.918;2022-10-01T09:16:06;13.68;;;11.23;;
48703;SDS011;34502;51.296;16.918;2022-10-01T09:18:13;13.00;;;11.70;;
48703;SDS011;34502;51.296;16.918;2022-10-01T09:20:50;15.18;;;12.13;;
48703;SDS011;34502;51.296;16.918;2022-10-01T09:23:25;12.70;;;11.43;;
48703;SDS011;34502;51.296;16.918;2022-10-01T09:25:55;12.75;;;11.02;;
48703;SDS011;34502;51.296;16.918;2022-10-01T09:28:26;13.00;;;10.65;;
48703;SDS011;34502;51.296;16.918;2022-10-01T09:34:02;14.02;;;11.60;;
48703;SDS011;34502;51.296;16.918;2022-10-01T09:39:09;14.35;;;11.88;;
48703;SDS011;34502;51.296;16.918;2022-10-01T09:41:41;14.38;;;12.25;;
48703;SDS011;34502;51.296;16.918;2022-10-01T09:44:21;15.25;;;13.48;;
48703;SDS011;34502;51.296;16.918;2022-10-01T09:46:51;18.10;;;12.98;;
48703;SDS011;34502;51.296;16.918;2022-10-01T09:49:26;14.23;;;12.32;;
48703;SDS011;34502;51.296;16.918;2022-10-01T09:52:41;14.32;;;12.25;;
48703;SDS011;34502;51.296;16.918;2022-10-01T09:55:00;14.65;;;12.07;;
48703;SDS011;34502;51.296;16.918;2022-10-01T09:57:43;13.18;;;11.75;;
48703;SDS011;34502;51.296;16.918;2022-10-01T10:03:00;13.55;;;11.02;;
48703;SDS011;34502;51.296;16.918;2022-10-01T10:05:27;17.27;;;11.57;;
48703;SDS011;34502;51.296;16.918;2022-10-01T10:07:58;11.73;;;10.55;;
48703;SDS011;34502;51.296;16.918;2022-10-01T10:11:01;12.98;;;11.13;;
48703;SDS011;34502;51.296;16.918;2022-10-01T10:13:33;14.65;;;11.35;;
48703;SDS011;34502;51.296;16.918;2022-10-01T10:18:45;12.63;;;11.35;;
48703;SDS011;34502;51.296;16.918;2022-10-01T10:21:14;14.80;;;11.15;;
48703;SDS011;34502;51.296;16.918;2022-10-01T10:23:46;13.38;;;10.55;;
48703;SDS011;34502;51.296;16.918;2022-10-01T10:26:32;11.25;;;10.05;;
48703;SDS011;34502;51.296;16.918;2022-10-01T10:29:02;13.20;;;11.43;;
48703;SDS011;34502;51.296;16.918;2022-10-01T10:31:36;15.05;;;11.00;;
48703;SDS011;34502;51.296;16.918;2022-10-01T10:34:17;14.85;;;11.35;;
48703;SDS011;34502;51.296;16.918;2022-10-01T10:36:46;14.32;;;9.93;;
48703;SDS011;34502;51.296;16.918;2022-10-01T10:39:34;12.50;;;10.18;;
48703;SDS011;34502;51.296;16.918;2022-10-01T10:42:00;9.68;;;8.68;;
48703;SDS011;34502;51.296;16.918;2022-10-01T10:44:28;9.85;;;8.52;;
48703;SDS011;34502;51.296;16.918;2022-10-01T10:47:04;9.60;;;8.60;;
48703;SDS011;34502;51.296;16.918;2022-10-01T10:49:34;9.90;;;8.82;;
48703;SDS011;34502;51.296;16.918;2022-10-01T10:54:45;9.73;;;8.43;;
48703;SDS011;34502;51.296;16.918;2022-10-01T10:57:19;9.32;;;7.60;;
48703;SDS011;34502;51.296;16.918;2022-10-01T10:59:55;7.93;;;7.13;;
48703;SDS011;34502;51.296;16.918;2022-10-01T11:02:23;8.35;;;7.43;;
48703;SDS011;34502;51.296;16.918;2022-10-01T11:04:51;9.30;;;6.88;;
48703;SDS011;34502;51.296;16.918;2022-10-01T11:07:18;17.92;;;9.63;;
48703;SDS011;34502;51.296;16.918;2022-10-01T11:10:02;12.40;;;7.38;;
48703;SDS011;34502;51.296;16.918;2022-10-01T11:15:56;7.35;;;6.18;;
48703;SDS011;34502;51.296;16.918;2022-10-01T11:21:16;6.38;;;5.72;;
48703;SDS011;34502;51.296;16.918;2022-10-01T11:24:14;6.00;;;5.30;;
48703;SDS011;34502;51.296;16.918;2022-10-01T11:27:09;8.23;;;5.50;;
48703;SDS011;34502;51.296;16.918;2022-10-01T11:32:31;5.65;;;4.70;;
48703;SDS011;34502;51.296;16.918;2022-10-01T11:35:14;6.47;;;5.03;;
48703;SDS011;34502;51.296;16.918;2022-10-01T11:37:56;5.38;;;4.72;;
48703;SDS011;34502;51.296;16.918;2022-10-01T11:40:56;9.07;;;4.63;;
48703;SDS011;34502;51.296;16.918;2022-10-01T11:43:36;4.93;;;4.20;;
48703;SDS011;34502;51.296;16.918;2022-10-01T11:46:13;5.00;;;4.45;;
48703;SDS011;34502;51.296;16.918;2022-10-01T11:48:47;12.35;;;5.40;;
48703;SDS011;34502;51.296;16.918;2022-10-01T11:51:17;6.30;;;4.47;;
48703;SDS011;34502;51.296;16.918;2022-10-01T11:53:46;5.78;;;4.20;;
48703;SDS011;34502;51.296;16.918;2022-10-01T11:56:19;6.85;;;4.90;;
48703;SDS011;34502;51.296;16.918;2022-10-01T12:02:11;7.38;;;4.80;;
48703;SDS011;34502;51.296;16.918;2022-10-01T12:04:57;6.00;;;4.30;;
48703;SDS011;34502;51.296;16.918;2022-10-01T12:07:29;6.43;;;4.80;;
48703;SDS011;34502;51.296;16.918;2022-10-01T12:13:09;12.13;;;5.65;;
48703;SDS011;34502;51.296;16.918;2022-10-01T12:18:50;6.20;;;4.65;;
48703;SDS011;34502;51.296;16.918;2022-10-01T12:21:34;7.45;;;4.13;;
48703;SDS011;34502;51.296;16.918;2022-10-01T12:24:04;8.60;;;5.25;;
48703;SDS011;34502;51.296;16.918;2022-10-01T12:26:55;5.57;;;3.80;;
48703;SDS011;34502;51.296;16.918;2022-10-01T12:29:49;4.20;;;3.80;;
48703;SDS011;34502;51.296;16.918;2022-10-01T12:44:20;7.00;;;3.28;;
48703;SDS011;34502;51.296;16.918;2022-10-01T12:55:00;4.03;;;2.90;;
48703;SDS011;34502;51.296;16.918;2022-10-01T12:57:36;2.85;;;2.60;;
48703;SDS011;34502;51.296;16.918;2022-10-01T13:00:17;6.47;;;2.97;;
48703;SDS011;34502;51.296;16.918;2022-10-01T13:05:57;3.65;;;3.00;;
48703;SDS011;34502;51.296;16.918;2022-10-01T13:08:46;3.03;;;2.70;;
48703;SDS011;34502;51.296;16.918;2022-10-01T13:11:36;4.03;;;2.25;;
48703;SDS011;34502;51.296;16.918;2022-10-01T13:14:09;8.07;;;2.88;;
48703;SDS011;34502;51.296;16.918;2022-10-01T13:17:00;2.78;;;2.35;;
48703;SDS011;34502;51.296;16.918;2022-10-01T13:19:39;4.82;;;2.50;;
48703;SDS011;34502;51.296;16.918;2022-10-01T13:22:33;5.70;;;3.00;;
48703;SDS011;34502;51.296;16.918;2022-10-01T13:28:18;2.63;;;2.42;;
48703;SDS011;34502;51.296;16.918;2022-10-01T13:30:59;3.65;;;2.67;;
48703;SDS011;34502;51.296;16.918;2022-10-01T13:33:34;7.13;;;3.58;;
48703;SDS011;34502;51.296;16.918;2022-10-01T13:36:04;3.30;;;2.60;;
48703;SDS011;34502;51.296;16.918;2022-10-01T13:41:04;4.65;;;3.10;;
48703;SDS011;34502;51.296;16.918;2022-10-01T13:43:45;7.90;;;3.50;;
48703;SDS011;34502;51.296;16.918;2022-10-01T13:46:13;3.88;;;3.20;;
48703;SDS011;34502;51.296;16.918;2022-10-01T13:48:46;4.72;;;3.28;;
48703;SDS011;34502;51.296;16.918;2022-10-01T13:51:13;6.65;;;3.85;;
48703;SDS011;34502;51.296;16.918;2022-10-01T13:56:06;4.80;;;3.20;;
48703;SDS011;34502;51.296;16.918;2022-10-01T13:58:45;6.60;;;4.00;;
48703;SDS011;34502;51.296;16.918;2022-10-01T14:03:47;4.65;;;3.28;;
48703;SDS011;34502;51.296;16.918;2022-10-01T14:06:23;5.13;;;3.58;;
48703;SDS011;34502;51.296;16.918;2022-10-01T14:11:55;6.70;;;3.53;;
48703;SDS011;34502;51.296;16.918;2022-10-01T14:15:28;5.00;;;3.88;;
48703;SDS011;34502;51.296;16.918;2022-10-01T14:18:16;8.02;;;3.40;;
48703;SDS011;34502;51.296;16.918;2022-10-01T14:21:07;4.25;;;3.10;;
48703;SDS011;34502;51.296;16.918;2022-10-01T14:26:52;4.15;;;3.40;;
48703;SDS011;34502;51.296;16.918;2022-10-01T14:35:03;4.45;;;3.53;;
48703;SDS011;34502;51.296;16.918;2022-10-01T14:37:43;5.15;;;3.67;;
48703;SDS011;34502;51.296;16.918;2022-10-01T14:40:16;5.60;;;3.50;;
48703;SDS011;34502;51.296;16.918;2022-10-01T14:46:00;12.40;;;7.47;;
48703;SDS011;34502;51.296;16.918;2022-10-01T14:48:31;3.33;;;3.00;;
48703;SDS011;34502;51.296;16.918;2022-10-01T14:50:59;4.80;;;4.10;;
48703;SDS011;34502;51.296;16.918;2022-10-01T14:53:27;4.32;;;3.00;;
48703;SDS011;34502;51.296;16.918;2022-10-01T14:55:57;4.78;;;2.63;;
48703;SDS011;34502;51.296;16.918;2022-10-01T14:58:43;3.85;;;2.83;;
48703;SDS011;34502;51.296;16.918;2022-10-01T15:01:16;3.40;;;2.67;;
48703;SDS011;34502;51.296;16.918;2022-10-01T15:03:44;6.82;;;4.93;;
48703;SDS011;34502;51.296;16.918;2022-10-01T15:06:15;3.83;;;3.28;;
48703;SDS011;34502;51.296;16.918;2022-10-01T15:08:47;5.18;;;3.92;;
48703;SDS011;34502;51.296;16.918;2022-10-01T15:11:16;5.85;;;4.35;;
48703;SDS011;34502;51.296;16.918;2022-10-01T15:13:48;6.28;;;4.53;;
48703;SDS011;34502;51.296;16.918;2022-10-01T15:16:16;8.73;;;4.30;;
48703;SDS011;34502;51.296;16.918;2022-10-01T15:18:50;3.60;;;2.90;;
48703;SDS011;34502;51.296;16.918;2022-10-01T15:21:19;4.38;;;3.60;;
48703;SDS011;34502;51.296;16.918;2022-10-01T15:23:59;5.32;;;4.93;;
48703;SDS011;34502;51.296;16.918;2022-10-01T15:26:28;4.00;;;3.00;;
48703;SDS011;34502;51.296;16.918;2022-10-01T15:31:52;7.43;;;3.80;;
48703;SDS011;34502;51.296;16.918;2022-10-01T15:34:19;5.05;;;3.40;;
48703;SDS011;34502;51.296;16.918;2022-10-01T15:36:48;3.30;;;3.00;;
48703;SDS011;34502;51.296;16.918;2022-10-01T15:39:23;4.45;;;3.90;;
48703;SDS011;34502;51.296;16.918;2022-10-01T15:41:52;4.22;;;3.75;;
48703;SDS011;34502;51.296;16.918;2022-10-01T15:49:59;5.10;;;4.60;;
48703;SDS011;34502;51.296;16.918;2022-10-01T15:57:56;7.43;;;4.63;;
48703;SDS011;34502;51.296;16.918;2022-10-01T16:00:28;9.65;;;4.90;;
48703;SDS011;34502;51.296;16.918;2022-10-01T16:02:58;8.95;;;6.47;;
48703;SDS011;34502;51.296;16.918;2022-10-01T16:05:26;11.88;;;7.70;;
48703;SDS011;34502;51.296;16.918;2022-10-01T16:07:56;5.25;;;3.13;;
48703;SDS011;34502;51.296;16.918;2022-10-01T16:10:35;6.25;;;4.43;;
48703;SDS011;34502;51.296;16.918;2022-10-01T16:16:07;3.45;;;3.15;;
48703;SDS011;34502;51.296;16.918;2022-10-01T16:18:53;2.45;;;2.25;;
48703;SDS011;34502;51.296;16.918;2022-10-01T16:21:23;4.32;;;2.28;;
48703;SDS011;34502;51.296;16.918;2022-10-01T16:23:53;4.18;;;2.35;;
48703;SDS011;34502;51.296;16.918;2022-10-01T16:28:53;4.07;;;3.17;;
48703;SDS011;34502;51.296;16.918;2022-10-01T16:31:24;3.88;;;3.10;;
48703;SDS011;34502;51.296;16.918;2022-10-01T16:33:50;6.28;;;4.05;;
48703;SDS011;34502;51.296;16.918;2022-10-01T16:36:18;7.63;;;4.97;;
48703;SDS011;34502;51.296;16.918;2022-10-01T16:38:46;8.20;;;5.90;;
48703;SDS011;34502;51.296;16.918;2022-10-01T16:41:13;9.63;;;5.78;;
48703;SDS011;34502;51.296;16.918;2022-10-01T16:43:44;8.00;;;5.90;;
48703;SDS011;34502;51.296;16.918;2022-10-01T16:46:10;8.25;;;6.30;;
48703;SDS011;34502;51.296;16.918;2022-10-01T16:48:37;9.70;;;6.75;;
48703;SDS011;34502;51.296;16.918;2022-10-01T16:51:03;13.25;;;8.50;;
48703;SDS011;34502;51.296;16.918;2022-10-01T16:53:29;11.93;;;8.43;;
48703;SDS011;34502;51.296;16.918;2022-10-01T16:55:55;10.68;;;7.63;;
48703;SDS011;34502;51.296;16.918;2022-10-01T16:58:22;9.95;;;6.78;;
48703;SDS011;34502;51.296;16.918;2022-10-01T17:00:48;11.45;;;6.95;;
48703;SDS011;34502;51.296;16.918;2022-10-01T17:03:18;8.48;;;6.55;;
48703;SDS011;34502;51.296;16.918;2022-10-01T17:05:45;11.57;;;7.43;;
48703;SDS011;34502;51.296;16.918;2022-10-01T17:08:12;6.47;;;5.68;;